Time;durP1;ratioP1;P1;durP2;ratioP2;P2;SDS_P1;SDS_P2;PMS_P1;PMS_P2;Temp;Humidity;BMP_temperature;BMP_pressure;BME280_temperature;BME280_humidity;BME280_pressure;Samples;Min_cycle;Max_cycle;Signal;HPM_P1;HPM_P2
2023/11/19 00:01:41;;;;;;;;;;;;;;;21.72;22.58;96535.03;5041460;28;1905;-78
2023/11/19 00:04:06;;;;;;;;;;;;;;;21.82;22.33;96535.75;5059024;28;970;-78
2023/11/19 00:06:32;;;;;;;;;;;;;;;21.55;22.74;96519.69;5058275;28;896;-77
2023/11/19 00:08:57;;;;;;;;;;;;;;;21.65;22.48;96543.84;5040853;28;1193;-77
2023/11/19 00:11:23;;;;;;;;;;;;;;;21.39;22.89;96542.75;5041305;28;1048;-77
2023/11/19 00:13:48;;;;;;;;;;;;;;;21.31;23.10;96562.91;5039975;28;989;-77
2023/11/19 00:16:14;;;;;;;;;;;;;;;21.70;22.63;96580.00;5023740;28;1232;-77
2023/11/19 00:18:39;;;;;;;;;;;;;;;21.67;22.56;96568.88;5039968;28;1020;-77
2023/11/19 00:21:05;;;;;;;;;;;;;;;21.10;23.47;96563.91;5056602;28;1909;-78
2023/11/19 00:23:30;;;;;;;;;;;;;;;21.68;22.52;96581.75;5039985;28;964;-77
2023/11/19 00:25:56;;;;;;;;;;;;;;;21.62;22.71;96601.44;5040229;28;905;-77
2023/11/19 00:28:21;;;;;;;;;;;;;;;21.67;22.32;96597.97;5056465;28;986;-77
2023/11/19 00:30:47;;;;;;;;;;;;;;;21.37;22.66;96618.84;5023509;28;1282;-78
2023/11/19 00:33:12;;;;;;;;;;;;;;;21.39;22.59;96627.63;5023162;28;1385;-77
2023/11/19 00:35:38;;;;;;;;;;;;;;;21.43;22.93;96619.75;5023250;28;1238;-78
2023/11/19 00:38:03;;;;;;;;;;;;;;;21.26;22.91;96641.94;5023205;28;1123;-77
2023/11/19 00:40:29;;;;;;;;;;;;;;;20.93;23.43;96647.50;5000535;28;1504;-78
2023/11/19 00:42:55;;;;;;;;;;;;;;;21.37;22.86;96645.09;5000305;28;1902;-78
2023/11/19 00:45:21;;;;;;;;;;;;;;;21.59;22.58;96664.66;4983861;28;1108;-78
2023/11/19 00:47:46;;;;;;;;;;;;;;;21.68;22.73;96649.69;4996750;28;1564;-77
2023/11/19 00:50:13;;;;;;;;;;;;;;;21.57;22.74;96667.19;4996767;28;921;-78
2023/11/19 00:52:38;;;;;;;;;;;;;;;21.41;22.52;96662.69;4980758;28;1169;-78
2023/11/19 00:55:04;;;;;;;;;;;;;;;21.61;22.73;96670.66;4996291;28;1070;-77
2023/11/19 00:57:32;;;;;;;;;;;;;;;21.59;22.47;96673.16;4964392;28;1049;-78
2023/11/19 00:59:58;;;;;;;;;;;;;;;21.76;22.09;96663.03;4964538;28;1124;-78
2023/11/19 01:02:24;;;;;;;;;;;;;;;21.43;22.86;96685.63;4964567;28;1959;-77
2023/11/19 01:04:49;;;;;;;;;;;;;;;21.49;22.71;96680.09;4980179;28;928;-77
2023/11/19 01:07:16;;;;;;;;;;;;;;;21.53;22.68;96683.56;4996705;28;966;-77
2023/11/19 01:09:41;;;;;;;;;;;;;;;21.36;22.76;96690.84;4964143;28;1128;-77
2023/11/19 01:12:07;;;;;;;;;;;;;;;21.25;23.09;96689.25;4979005;28;1121;-78
2023/11/19 01:14:33;;;;;;;;;;;;;;;21.54;22.71;96699.25;4999103;28;1124;-78
2023/11/19 01:16:58;;;;;;;;;;;;;;;21.37;22.85;96687.53;4999516;28;998;-78
2023/11/19 01:19:24;;;;;;;;;;;;;;;21.50;22.44;96701.47;4999434;28;1302;-78
2023/11/19 01:21:52;;;;;;;;;;;;;;;21.69;22.50;96683.19;5015935;28;1967;-77
2023/11/19 01:24:17;;;;;;;;;;;;;;;21.58;22.22;96697.06;5021396;28;1049;-77
2023/11/19 01:26:49;;;;;;;;;;;;;;;21.62;22.62;96702.56;5039781;28;906;-77
2023/11/19 01:29:14;;;;;;;;;;;;;;;20.99;23.38;96713.50;5024043;28;1131;-78
2023/11/19 01:31:43;;;;;;;;;;;;;;;21.39;23.05;96713.28;5056609;28;1134;-77
2023/11/19 01:34:09;;;;;;;;;;;;;;;21.37;22.91;96710.16;5039403;28;924;-77
2023/11/19 01:36:34;;;;;;;;;;;;;;;21.75;22.43;96695.41;5015404;28;1345;-78
2023/11/19 01:39:00;;;;;;;;;;;;;;;21.70;22.38;96721.53;5015605;28;1148;-78
2023/11/19 01:41:25;;;;;;;;;;;;;;;21.69;22.51;96731.31;4999291;28;1899;-77
2023/11/19 01:43:51;;;;;;;;;;;;;;;21.77;22.40;96726.88;5015757;28;961;-78
2023/11/19 01:46:16;;;;;;;;;;;;;;;21.64;22.66;96734.00;4999036;28;1124;-78
2023/11/19 01:48:45;;;;;;;;;;;;;;;21.58;22.79;96748.00;4982400;28;1719;-78
2023/11/19 01:51:12;;;;;;;;;;;;;;;21.90;22.24;96745.72;4998924;28;1108;-78
2023/11/19 01:53:38;;;;;;;;;;;;;;;21.75;22.45;96749.22;4998567;28;1115;-78
2023/11/19 01:56:04;;;;;;;;;;;;;;;21.55;22.57;96743.28;4976227;28;1073;-77
2023/11/19 01:58:29;;;;;;;;;;;;;;;21.95;21.93;96764.88;4959692;28;1421;-77
2023/11/19 02:00:55;;;;;;;;;;;;;;;21.72;22.32;96758.69;4976035;28;1964;-78
2023/11/19 02:03:20;;;;;;;;;;;;;;;21.94;22.15;96763.31;4975793;28;1433;-78
2023/11/19 02:05:47;;;;;;;;;;;;;;;21.49;22.74;96759.34;4976124;28;1157;-78
2023/11/19 02:08:14;;;;;;;;;;;;;;;21.60;22.76;96751.13;5006338;28;1146;-78
2023/11/19 02:10:39;;;;;;;;;;;;;;;21.61;22.69;96778.22;4982459;28;1130;-78
2023/11/19 02:13:06;;;;;;;;;;;;;;;21.83;22.40;96775.94;4966480;28;1255;-78
2023/11/19 02:15:32;;;;;;;;;;;;;;;21.82;22.00;96785.72;4982700;28;1124;-77
2023/11/19 02:18:10;;;;;;;;;;;;;;;21.78;22.04;96779.41;4998907;28;1388;-77
2023/11/19 02:20:35;;;;;;;;;;;;;;;21.33;22.82;96781.06;4995703;28;1083;-77
2023/11/19 02:23:01;;;;;;;;;;;;;;;21.21;23.04;96798.94;4998536;28;1906;-78
2023/11/19 02:25:28;;;;;;;;;;;;;;;21.39;22.51;96786.06;5014664;28;1167;-78
2023/11/19 02:28:00;;;;;;;;;;;;;;;21.74;22.45;96795.78;4995589;28;1194;-77
2023/11/19 02:30:26;;;;;;;;;;;;;;;21.41;22.73;96807.00;4998531;28;1101;-78
2023/11/19 02:32:57;;;;;;;;;;;;;;;21.63;22.60;96789.81;5014936;28;1155;-78
2023/11/19 02:35:23;;;;;;;;;;;;;;;21.67;22.61;96801.78;4966349;28;1438;-78
2023/11/19 02:37:49;;;;;;;;;;;;;;;21.83;22.24;96804.25;4998262;28;923;-77
2023/11/19 02:40:14;;;;;;;;;;;;;;;21.63;22.58;96806.81;4975658;28;1147;-77
2023/11/19 02:42:40;;;;;;;;;;;;;;;21.38;22.91;96784.50;4975693;28;1898;-78
2023/11/19 02:45:06;;;;;;;;;;;;;;;21.26;23.06;96818.13;4936943;29;1056;-76
2023/11/19 02:47:32;;;;;;;;;;;;;;;21.29;22.69;96822.81;4921416;29;1078;-78
2023/11/19 02:49:57;;;;;;;;;;;;;;;21.56;22.69;96813.59;4937227;29;933;-77
2023/11/19 02:52:23;;;;;;;;;;;;;;;21.41;22.63;96823.97;4937602;29;992;-78
2023/11/19 02:54:50;;;;;;;;;;;;;;;21.79;22.36;96806.47;4936861;29;1202;-77
2023/11/19 02:57:19;;;;;;;;;;;;;;;21.66;22.68;96822.88;4921395;29;1325;-78
2023/11/19 02:59:44;;;;;;;;;;;;;;;21.24;22.97;96843.28;4937170;29;925;-77
2023/11/19 03:02:15;;;;;;;;;;;;;;;21.84;22.27;96839.81;4940188;29;1969;-77
2023/11/19 03:04:43;;;;;;;;;;;;;;;21.57;22.70;96848.34;4941127;29;1180;-78
2023/11/19 03:07:08;;;;;;;;;;;;;;;21.63;22.77;96840.00;4942744;29;1030;-78
2023/11/19 03:09:35;;;;;;;;;;;;;;;21.55;22.30;96853.66;4943866;29;1060;-78
2023/11/19 03:12:01;;;;;;;;;;;;;;;21.46;22.66;96865.00;4944024;29;1019;-78
2023/11/19 03:14:27;;;;;;;;;;;;;;;21.68;22.13;96857.13;4943916;29;1636;-77
2023/11/19 03:16:52;;;;;;;;;;;;;;;21.06;23.38;96861.00;4951007;28;1207;-78
2023/11/19 03:19:18;;;;;;;;;;;;;;;21.54;22.56;96871.91;4982460;28;938;-78
2023/11/19 03:21:44;;;;;;;;;;;;;;;21.77;22.37;96859.97;5006058;28;1902;-78
2023/11/19 03:24:10;;;;;;;;;;;;;;;21.62;22.68;96878.06;5038850;28;1112;-78
2023/11/19 03:26:37;;;;;;;;;;;;;;;21.37;22.66;96890.47;5040416;28;950;-78
2023/11/19 03:29:02;;;;;;;;;;;;;;;21.45;22.80;96903.03;5040052;28;992;-78
2023/11/19 03:31:28;;;;;;;;;;;;;;;21.79;22.21;96911.22;5038903;28;1080;-78
2023/11/19 03:33:54;;;;;;;;;;;;;;;21.83;22.25;96883.53;5054277;28;1424;-78
2023/11/19 03:36:20;;;;;;;;;;;;;;;21.59;22.58;96902.41;5038234;28;1185;-78
2023/11/19 03:38:46;;;;;;;;;;;;;;;21.57;22.38;96902.13;4997423;28;968;-78
2023/11/19 03:41:12;;;;;;;;;;;;;;;21.56;22.33;96900.56;4981879;28;1963;-78
2023/11/19 03:43:38;;;;;;;;;;;;;;;21.39;22.72;96910.59;4965796;28;1144;-78
2023/11/19 03:46:05;;;;;;;;;;;;;;;21.79;22.19;96914.06;4965699;28;1117;-78
2023/11/19 03:48:31;;;;;;;;;;;;;;;21.45;22.52;96903.03;4997867;28;943;-78
2023/11/19 03:50:56;;;;;;;;;;;;;;;21.83;21.92;96911.88;4959118;29;1156;-78
2023/11/19 03:53:22;;;;;;;;;;;;;;;21.82;22.18;96910.28;4926518;29;1261;-78
2023/11/19 03:55:47;;;;;;;;;;;;;;;21.72;22.23;96933.44;4942426;29;1276;-78
2023/11/19 03:58:13;;;;;;;;;;;;;;;21.60;22.33;96904.00;4923959;29;1312;-78
2023/11/19 04:00:38;;;;;;;;;;;;;;;21.50;22.42;96922.22;4940282;29;1001;-78
2023/11/19 04:03:04;;;;;;;;;;;;;;;21.49;22.58;96926.31;4939756;29;1911;-78
2023/11/19 04:05:30;;;;;;;;;;;;;;;22.03;21.76;96930.41;4940176;29;1234;-78
2023/11/19 04:07:56;;;;;;;;;;;;;;;21.12;22.79;96920.56;4939748;29;1149;-78
2023/11/19 04:10:22;;;;;;;;;;;;;;;21.53;22.43;96943.94;4983668;28;1011;-78
2023/11/19 04:12:47;;;;;;;;;;;;;;;21.71;22.01;96929.81;5014093;28;1209;-78
2023/11/19 04:15:14;;;;;;;;;;;;;;;21.26;22.76;96948.28;5014225;28;1044;-77
2023/11/19 04:17:39;;;;;;;;;;;;;;;21.45;22.51;96931.34;4997507;28;1202;-78
2023/11/19 04:20:05;;;;;;;;;;;;;;;21.51;22.31;96935.94;4997504;28;1358;-78
2023/11/19 04:22:31;;;;;;;;;;;;;;;21.65;22.21;96906.19;5014085;28;1993;-78
2023/11/19 04:24:56;;;;;;;;;;;;;;;21.10;22.89;96934.41;5017617;28;933;-78
2023/11/19 04:27:22;;;;;;;;;;;;;;;21.17;22.64;96945.41;5018133;28;1462;-78
2023/11/19 04:29:50;;;;;;;;;;;;;;;21.75;21.96;96941.75;5035139;28;1375;-78
2023/11/19 04:32:16;;;;;;;;;;;;;;;21.41;22.52;96930.72;5038876;28;1232;-78
2023/11/19 04:34:41;;;;;;;;;;;;;;;21.43;22.23;96948.78;5070633;28;1319;-78
2023/11/19 04:37:07;;;;;;;;;;;;;;;21.68;21.97;96967.53;5034718;28;1116;-78
2023/11/19 04:39:32;;;;;;;;;;;;;;;21.54;22.18;96962.50;5038019;28;1301;-77
2023/11/19 04:41:59;;;;;;;;;;;;;;;21.64;22.23;96972.56;5054339;28;1913;-78
2023/11/19 04:44:24;;;;;;;;;;;;;;;21.77;22.09;96975.25;5070128;28;1063;-78
2023/11/19 04:46:50;;;;;;;;;;;;;;;21.45;22.46;96973.78;5036903;28;1217;-78
2023/11/19 04:49:16;;;;;;;;;;;;;;;20.86;23.10;96967.31;5035546;28;1495;-78
2023/11/19 04:51:42;;;;;;;;;;;;;;;21.24;22.48;96979.09;5036354;28;1046;-78
2023/11/19 04:54:08;;;;;;;;;;;;;;;21.51;22.51;96964.22;4977104;28;1058;-79
2023/11/19 04:56:35;;;;;;;;;;;;;;;21.58;22.20;96955.41;4993895;28;861;-79
2023/11/19 04:59:00;;;;;;;;;;;;;;;22.03;21.93;96947.41;4941509;28;1016;-80
2023/11/19 05:01:26;;;;;;;;;;;;;;;21.80;21.92;96958.09;4958409;28;1899;-79
2023/11/19 05:03:51;;;;;;;;;;;;;;;22.20;21.58;96962.84;4954240;29;1100;-80
2023/11/19 05:06:16;;;;;;;;;;;;;;;21.89;22.01;96954.50;4939129;29;1210;-79
2023/11/19 05:08:42;;;;;;;;;;;;;;;22.01;21.67;96969.75;4954304;29;1184;-79
2023/11/19 05:11:10;;;;;;;;;;;;;;;21.60;22.14;96966.25;4938706;29;1046;-80
2023/11/19 05:13:35;;;;;;;;;;;;;;;21.54;22.02;96997.25;4938014;29;939;-79
2023/11/19 05:16:01;;;;;;;;;;;;;;;21.63;21.97;96947.56;4954725;29;948;-80
2023/11/19 05:18:26;;;;;;;;;;;;;;;21.88;21.83;96980.47;4938288;29;1030;-79
2023/11/19 05:20:52;;;;;;;;;;;;;;;21.94;21.39;96979.34;4953098;29;1964;-79
2023/11/19 05:23:17;;;;;;;;;;;;;;;21.77;22.03;96976.06;4957504;29;1160;-79
2023/11/19 05:25:43;;;;;;;;;;;;;;;21.42;22.26;97011.53;4957494;28;949;-79
2023/11/19 05:28:08;;;;;;;;;;;;;;;21.49;22.18;96999.91;4957178;28;941;-80
2023/11/19 05:30:34;;;;;;;;;;;;;;;21.37;22.36;97032.75;4961798;28;1037;-79
2023/11/19 05:33:00;;;;;;;;;;;;;;;21.18;22.14;97014.88;4996120;28;973;-80
2023/11/19 05:35:26;;;;;;;;;;;;;;;21.59;21.82;97038.28;5037867;28;1541;-80
2023/11/19 05:37:51;;;;;;;;;;;;;;;21.83;21.69;97008.16;5019969;28;988;-79
2023/11/19 05:40:17;;;;;;;;;;;;;;;21.73;21.62;97026.38;5036549;28;965;-80
2023/11/19 05:42:43;;;;;;;;;;;;;;;21.51;21.87;97049.13;5036240;28;1906;-78
2023/11/19 05:45:10;;;;;;;;;;;;;;;21.27;22.47;97051.69;5037724;28;920;-80
2023/11/19 05:47:35;;;;;;;;;;;;;;;21.61;21.80;97052.78;5036340;28;990;-79
2023/11/19 05:50:01;;;;;;;;;;;;;;;21.32;22.15;97065.25;5019822;28;954;-79
2023/11/19 05:52:28;;;;;;;;;;;;;;;21.40;21.68;97059.31;5020034;28;1233;-79
2023/11/19 05:54:53;;;;;;;;;;;;;;;21.49;21.95;97073.50;5031274;28;1047;-79
2023/11/19 05:57:23;;;;;;;;;;;;;;;21.42;22.06;97056.81;5056342;28;1129;-80
2023/11/19 05:59:49;;;;;;;;;;;;;;;21.19;22.32;97067.41;5056077;28;1345;-79
2023/11/19 06:02:15;;;;;;;;;;;;;;;21.67;21.84;97073.56;5056109;28;1902;-79
2023/11/19 06:04:42;;;;;;;;;;;;;;;21.62;21.66;97096.03;5015203;28;1026;-78
2023/11/19 06:07:08;;;;;;;;;;;;;;;21.71;21.56;97085.53;5015632;28;1038;-78
2023/11/19 06:09:33;;;;;;;;;;;;;;;21.65;21.44;97090.19;5015105;28;903;-79
2023/11/19 06:12:01;;;;;;;;;;;;;;;21.78;21.51;97079.56;5015702;28;1079;-79
2023/11/19 06:14:27;;;;;;;;;;;;;;;21.59;21.69;97089.25;5015127;28;1146;-80
2023/11/19 06:16:52;;;;;;;;;;;;;;;21.56;21.60;97085.31;4960444;28;1233;-79
2023/11/19 06:19:18;;;;;;;;;;;;;;;21.61;21.52;97092.41;4976002;28;937;-80
2023/11/19 06:21:43;;;;;;;;;;;;;;;21.10;22.10;97080.69;4959973;28;1910;-79
2023/11/19 06:24:09;;;;;;;;;;;;;;;21.31;21.96;97079.88;4976080;28;1253;-79
2023/11/19 06:26:34;;;;;;;;;;;;;;;21.52;21.47;97092.38;4960464;28;906;-79
2023/11/19 06:29:00;;;;;;;;;;;;;;;21.39;21.65;97081.16;4960229;28;917;-77
2023/11/19 06:31:26;;;;;;;;;;;;;;;21.26;21.62;97089.72;4959574;28;1085;-77
2023/11/19 06:33:51;;;;;;;;;;;;;;;21.34;21.56;97095.91;4975757;28;947;-77
2023/11/19 06:36:17;;;;;;;;;;;;;;;21.46;21.63;97094.25;4989471;28;1152;-77
2023/11/19 06:38:43;;;;;;;;;;;;;;;21.44;21.64;97093.91;4978372;28;893;-77
2023/11/19 06:41:11;;;;;;;;;;;;;;;21.37;21.58;97088.53;4998259;28;1981;-78
2023/11/19 06:43:36;;;;;;;;;;;;;;;21.49;21.41;97104.63;4999163;28;1059;-79
2023/11/19 06:46:02;;;;;;;;;;;;;;;20.99;21.90;97092.44;4999799;28;954;-78
2023/11/19 06:48:28;;;;;;;;;;;;;;;21.44;21.52;97108.06;5013960;28;1045;-79
2023/11/19 06:50:53;;;;;;;;;;;;;;;21.23;21.51;97116.13;5002219;28;912;-79
2023/11/19 06:53:19;;;;;;;;;;;;;;;20.81;22.02;97122.16;5002456;28;919;-79
2023/11/19 06:55:44;;;;;;;;;;;;;;;21.77;21.13;97117.63;5018800;28;1252;-79
2023/11/19 06:58:10;;;;;;;;;;;;;;;21.95;20.70;97118.91;5002394;28;968;-79
2023/11/19 07:00:36;;;;;;;;;;;;;;;22.05;20.72;97112.81;5019023;28;1113;-80
2023/11/19 07:03:01;;;;;;;;;;;;;;;22.12;20.58;97108.91;5002086;28;1983;-79
2023/11/19 07:05:28;;;;;;;;;;;;;;;22.29;20.18;97107.38;4986227;28;997;-79
2023/11/19 07:07:54;;;;;;;;;;;;;;;22.02;20.48;97127.91;5018368;28;1073;-79
2023/11/19 07:10:19;;;;;;;;;;;;;;;22.01;20.50;97125.53;5019003;28;1384;-79
2023/11/19 07:12:45;;;;;;;;;;;;;;;22.11;20.56;97152.66;5002817;28;960;-79
2023/11/19 07:15:12;;;;;;;;;;;;;;;22.04;20.67;97147.28;5006570;28;1253;-79
2023/11/19 07:17:39;;;;;;;;;;;;;;;21.76;20.93;97158.53;5037949;28;891;-79
2023/11/19 07:20:05;;;;;;;;;;;;;;;21.60;21.02;97164.41;5038447;28;1016;-79
2023/11/19 07:22:31;;;;;;;;;;;;;;;21.92;20.69;97168.81;5038144;28;1987;-79
2023/11/19 07:24:57;;;;;;;;;;;;;;;22.14;20.48;97180.06;4998468;28;955;-78
2023/11/19 07:27:24;;;;;;;;;;;;;;;21.85;20.85;97206.69;4982534;28;1676;-79
2023/11/19 07:29:49;;;;;;;;;;;;;;;22.00;20.58;97203.28;4978791;28;985;-79
2023/11/19 07:32:15;;;;;;;;;;;;;;;21.95;20.46;97212.38;4962803;28;1065;-79
2023/11/19 07:34:40;;;;;;;;;;;;;;;21.52;20.80;97219.75;4962851;28;1096;-78
2023/11/19 07:37:07;;;;;;;;;;;;;;;21.58;21.12;97195.25;4978947;28;1013;-79
2023/11/19 07:39:32;;;;;;;;;;;;;;;21.80;20.66;97201.63;4962808;28;1053;-79
2023/11/19 07:41:58;;;;;;;;;;;;;;;21.71;20.89;97197.97;4962628;28;1919;-79
2023/11/19 07:44:24;;;;;;;;;;;;;;;21.75;20.74;97198.63;4962612;28;1211;-79
2023/11/19 07:46:50;;;;;;;;;;;;;;;21.49;20.87;97209.34;4978930;28;919;-79
2023/11/19 07:49:15;;;;;;;;;;;;;;;21.24;21.52;97211.06;4977107;28;945;-80
2023/11/19 07:51:41;;;;;;;;;;;;;;;21.38;21.32;97209.75;4981277;28;931;-79
2023/11/19 07:54:07;;;;;;;;;;;;;;;21.95;20.63;97206.72;4981895;28;1081;-78
2023/11/19 07:56:34;;;;;;;;;;;;;;;21.59;20.73;97216.63;5011435;28;1230;-79
2023/11/19 07:58:59;;;;;;;;;;;;;;;21.79;20.47;97210.59;5017273;28;938;-79
2023/11/19 08:01:25;;;;;;;;;;;;;;;21.91;20.72;97221.03;5001307;28;1975;-79
2023/11/19 08:03:50;;;;;;;;;;;;;;;21.94;20.56;97216.47;5017174;28;1151;-79
2023/11/19 08:06:16;;;;;;;;;;;;;;;21.81;20.41;97219.41;5017629;28;1052;-78
2023/11/19 08:08:41;;;;;;;;;;;;;;;21.85;20.55;97226.50;5016879;28;1119;-79
2023/11/19 08:11:07;;;;;;;;;;;;;;;21.70;20.90;97231.16;5033691;28;949;-78
2023/11/19 08:13:32;;;;;;;;;;;;;;;21.43;21.00;97233.84;5000697;28;1187;-78
2023/11/19 08:15:58;;;;;;;;;;;;;;;21.61;21.02;97244.50;5034053;28;978;-79
2023/11/19 08:18:24;;;;;;;;;;;;;;;21.81;20.48;97254.19;5033662;28;959;-79
2023/11/19 08:20:52;;;;;;;;;;;;;;;21.72;20.68;97244.88;5033746;28;947;-78
2023/11/19 08:23:18;;;;;;;;;;;;;;;21.59;20.85;97253.44;5016565;28;1898;-79
2023/11/19 08:25:44;;;;;;;;;;;;;;;21.71;20.50;97248.94;5033810;28;1155;-79
2023/11/19 08:28:09;;;;;;;;;;;;;;;21.44;21.11;97258.06;5016652;28;903;-79
2023/11/19 08:30:35;;;;;;;;;;;;;;;21.70;20.85;97258.69;5017146;28;1063;-80
2023/11/19 08:33:02;;;;;;;;;;;;;;;21.82;20.72;97250.13;5016646;28;1443;-80
2023/11/19 08:35:28;;;;;;;;;;;;;;;21.89;20.38;97234.09;4989168;28;1105;-80
2023/11/19 08:37:54;;;;;;;;;;;;;;;21.63;20.98;97239.94;5023587;28;1230;-79
2023/11/19 08:40:19;;;;;;;;;;;;;;;21.74;20.62;97243.13;5023426;28;929;-79
2023/11/19 08:42:45;;;;;;;;;;;;;;;21.71;20.85;97248.94;5039485;28;1918;-79
2023/11/19 08:45:11;;;;;;;;;;;;;;;22.00;20.25;97237.28;5039573;28;1026;-79
2023/11/19 08:47:40;;;;;;;;;;;;;;;21.54;20.81;97237.06;5023270;28;812;-80
2023/11/19 08:50:06;;;;;;;;;;;;;;;21.47;20.98;97240.16;5039899;28;887;-79
2023/11/19 08:52:31;;;;;;;;;;;;;;;21.68;20.73;97245.00;5023075;28;1390;-79
2023/11/19 08:54:57;;;;;;;;;;;;;;;21.83;20.85;97251.69;5039488;28;1519;-79
2023/11/19 08:57:23;;;;;;;;;;;;;;;21.44;21.32;97258.06;5023409;28;1167;-79
2023/11/19 08:59:49;;;;;;;;;;;;;;;21.87;20.85;97245.09;4999851;28;1221;-79
2023/11/19 09:02:14;;;;;;;;;;;;;;;21.76;20.47;97263.31;5016705;28;1909;-80
2023/11/19 09:04:40;;;;;;;;;;;;;;;21.82;20.41;97261.44;5000057;28;991;-79
2023/11/19 09:07:06;;;;;;;;;;;;;;;21.71;20.85;97266.72;4997163;28;1017;-78
2023/11/19 09:09:35;;;;;;;;;;;;;;;21.69;20.78;97257.91;4996761;28;890;-79
2023/11/19 09:12:01;;;;;;;;;;;;;;;21.40;21.14;97263.06;4996384;28;840;-79
2023/11/19 09:14:26;;;;;;;;;;;;;;;21.68;20.72;97273.31;4996486;28;938;-79
2023/11/19 09:16:52;;;;;;;;;;;;;;;21.88;20.60;97241.00;4996689;28;962;-79
2023/11/19 09:19:18;;;;;;;;;;;;;;;22.06;20.37;97263.72;4996224;28;1075;-77
2023/11/19 09:21:43;;;;;;;;;;;;;;;21.82;20.62;97261.44;4996686;28;1973;-76
2023/11/19 09:24:09;;;;;;;;;;;;;;;21.58;21.09;97251.88;4995766;28;1266;-77
2023/11/19 09:26:36;;;;;;;;;;;;;;;21.57;20.81;97250.28;4976647;28;1138;-76
2023/11/19 09:29:01;;;;;;;;;;;;;;;21.64;20.90;97241.50;4957279;29;1111;-77
2023/11/19 09:31:27;;;;;;;;;;;;;;;21.68;20.90;97247.81;5007130;28;970;-76
2023/11/19 09:33:52;;;;;;;;;;;;;;;21.83;20.30;97242.41;4998644;28;902;-78
2023/11/19 09:36:19;;;;;;;;;;;;;;;21.40;20.81;97240.41;4983169;28;1260;-78
2023/11/19 09:38:44;;;;;;;;;;;;;;;21.68;20.65;97247.81;4995601;28;1049;-78
2023/11/19 09:41:12;;;;;;;;;;;;;;;21.57;20.50;97255.94;4980214;28;1997;-78
2023/11/19 09:43:38;;;;;;;;;;;;;;;21.58;20.89;97251.88;4956812;29;1329;-78
2023/11/19 09:46:06;;;;;;;;;;;;;;;21.77;20.69;97252.75;4941225;29;936;-78
2023/11/19 09:48:34;;;;;;;;;;;;;;;21.54;20.67;97245.53;4941027;29;1128;-78
2023/11/19 09:51:00;;;;;;;;;;;;;;;21.59;20.38;97270.41;4957500;29;981;-78
2023/11/19 09:53:26;;;;;;;;;;;;;;;21.88;20.41;97260.84;4956952;29;947;-78
2023/11/19 09:55:51;;;;;;;;;;;;;;;21.78;20.53;97266.44;4957332;29;1094;-78
2023/11/19 09:58:17;;;;;;;;;;;;;;;21.61;20.39;97262.28;4940632;29;1197;-78
2023/11/19 10:00:42;;;;;;;;;;;;;;;21.49;20.63;97265.94;4940938;29;990;-78
2023/11/19 10:03:08;;;;;;;;;;;;;;;21.55;20.43;97270.56;4943278;28;1902;-78
2023/11/19 10:05:34;;;;;;;;;;;;;;;21.67;20.74;97280.22;4962700;28;1184;-78
2023/11/19 10:07:59;;;;;;;;;;;;;;;21.65;20.72;97274.22;4979219;28;1369;-78
2023/11/19 10:10:25;;;;;;;;;;;;;;;21.42;20.85;97269.06;4977062;28;1462;-78
2023/11/19 10:12:51;;;;;;;;;;;;;;;21.97;20.49;97289.22;5011435;28;1158;-77
2023/11/19 10:15:26;;;;;;;;;;;;;;;22.13;20.28;97297.50;4991996;28;1306;-78
2023/11/19 10:17:52;;;;;;;;;;;;;;;22.20;20.19;97302.88;4991534;28;1866;-77
2023/11/19 10:20:18;;;;;;;;;;;;;;;22.28;19.90;97295.66;4963784;28;1123;-78
2023/11/19 10:22:44;;;;;;;;;;;;;;;21.60;20.66;97305.97;5011913;28;1918;-78
2023/11/19 10:25:25;;;;;;;;;;;;;;;21.68;20.65;97307.28;4979158;28;913;-78
2023/11/19 10:27:51;;;;;;;;;;;;;;;21.72;20.70;97301.50;4975675;28;1050;-78
2023/11/19 10:30:26;;;;;;;;;;;;;;;21.99;20.18;97292.34;4991648;28;1058;-78
2023/11/19 10:33:06;;;;;;;;;;;;;;;21.54;20.47;97293.66;4991795;28;1286;-78
2023/11/19 10:35:32;;;;;;;;;;;;;;;21.66;20.74;97304.13;4975891;28;1317;-78
2023/11/19 10:38:01;;;;;;;;;;;;;;;21.90;20.46;97323.47;4976110;28;944;-78
2023/11/19 10:40:47;;;;;;;;;;;;;;;21.65;20.58;97311.03;4992106;28;1004;-78
2023/11/19 10:43:13;;;;;;;;;;;;;;;21.75;20.37;97307.00;4975499;28;1902;-78
2023/11/19 10:45:38;;;;;;;;;;;;;;;21.76;20.22;97325.59;5000263;28;959;-78
2023/11/19 10:48:07;;;;;;;;;;;;;;;21.79;20.56;97319.00;4998768;28;1028;-76
2023/11/19 10:50:34;;;;;;;;;;;;;;;21.78;20.61;97325.13;4999471;28;913;-78
2023/11/19 10:52:59;;;;;;;;;;;;;;;21.77;20.40;97315.84;4998525;28;883;-79
2023/11/19 10:55:29;;;;;;;;;;;;;;;21.56;20.62;97305.34;4998772;28;1136;-78
2023/11/19 10:57:56;;;;;;;;;;;;;;;21.92;20.25;97309.63;5001058;28;880;-78
2023/11/19 11:00:22;;;;;;;;;;;;;;;21.71;20.71;97317.69;5002829;28;1129;-78
2023/11/19 11:02:49;;;;;;;;;;;;;;;21.87;20.40;97313.06;5035722;28;1890;-78
2023/11/19 11:05:15;;;;;;;;;;;;;;;21.00;21.15;97331.56;5164637;23;3659;-74
2023/11/19 11:07:41;;;;;;;;;;;;;;;21.83;20.48;97322.47;5018463;28;1692;-74
2023/11/19 11:10:07;;;;;;;;;;;;;;;22.03;20.01;97327.78;5002253;28;1119;-73
2023/11/19 11:12:34;;;;;;;;;;;;;;;21.99;20.34;97332.00;5018562;28;854;-73
2023/11/19 11:15:00;;;;;;;;;;;;;;;21.85;20.53;97313.50;5001850;28;883;-73
2023/11/19 11:17:25;;;;;;;;;;;;;;;22.25;20.02;97324.94;5018428;28;827;-73
2023/11/19 11:19:51;;;;;;;;;;;;;;;22.08;20.01;97329.22;5001457;28;722;-74
2023/11/19 11:22:16;;;;;;;;;;;;;;;22.08;20.27;97332.06;4984949;28;1910;-74
2023/11/19 11:24:46;;;;;;;;;;;;;;;22.23;19.83;97333.13;5002101;28;908;-73
2023/11/19 11:27:17;;;;;;;;;;;;;;;21.70;20.89;97326.63;5035598;28;923;-74
2023/11/19 11:29:46;;;;;;;;;;;;;;;21.62;20.94;97337.44;5039927;28;774;-74
2023/11/19 11:32:17;;;;;;;;;;;;;;;22.02;20.60;97331.06;5021873;28;1211;-74
2023/11/19 11:34:52;;;;;;;;;;;;;;;21.89;20.54;97338.88;5038756;28;1081;-73
2023/11/19 11:37:36;;;;;;;;;;;;;;;21.83;20.36;97336.66;5021158;28;1362;-73
2023/11/19 11:40:05;;;;;;;;;;;;;;;21.87;20.75;97341.41;5039344;28;982;-74
2023/11/19 11:42:31;;;;;;;;;;;;;;;21.75;20.89;97360.81;5022346;28;1971;-74
2023/11/19 11:45:09;;;;;;;;;;;;;;;21.87;20.89;97347.84;5005034;28;925;-73
2023/11/19 11:47:43;;;;;;;;;;;;;;;21.83;20.61;97387.63;5038881;28;932;-74
2023/11/19 11:50:12;;;;;;;;;;;;;;;21.92;20.78;97401.06;5039583;28;931;-73
2023/11/19 11:52:56;;;;;;;;;;;;;;;21.77;20.89;97403.63;5039286;28;910;-74
2023/11/19 11:55:28;;;;;;;;;;;;;;;21.84;20.75;97406.19;5037902;28;868;-74
2023/11/19 11:57:54;;;;;;;;;;;;;;;21.87;20.71;97409.38;5021736;28;949;-74
2023/11/19 12:00:38;;;;;;;;;;;;;;;21.95;20.82;97408.63;4997302;28;966;-73
2023/11/19 12:03:04;;;;;;;;;;;;;;;21.75;21.22;97430.81;4997438;28;1906;-73
2023/11/19 12:05:29;;;;;;;;;;;;;;;21.91;21.11;97424.94;4997336;28;1203;-73
2023/11/19 12:08:01;;;;;;;;;;;;;;;21.88;20.87;97425.09;4997547;28;1109;-73
2023/11/19 12:10:33;;;;;;;;;;;;;;;21.71;21.19;97436.63;4997079;28;948;-73
2023/11/19 12:12:58;;;;;;;;;;;;;;;21.89;21.17;97447.28;4980798;28;917;-73
2023/11/19 12:15:26;;;;;;;;;;;;;;;22.05;20.67;97454.81;4997267;28;973;-73
2023/11/19 12:17:52;;;;;;;;;;;;;;;21.96;20.95;97460.41;4996853;28;951;-72
2023/11/19 12:20:18;;;;;;;;;;;;;;;21.91;20.92;97467.44;4981093;28;1011;-73
2023/11/19 12:22:44;;;;;;;;;;;;;;;21.95;20.76;97461.66;4980806;28;2016;-73
2023/11/19 12:25:10;;;;;;;;;;;;;;;21.52;21.57;97460.34;4980793;28;1000;-73
2023/11/19 12:27:36;;;;;;;;;;;;;;;21.82;21.26;97459.69;4980581;28;1092;-72
2023/11/19 12:30:04;;;;;;;;;;;;;;;21.77;21.34;97468.75;4980541;28;1064;-73
2023/11/19 12:32:40;;;;;;;;;;;;;;;21.81;21.05;97469.44;4964812;28;1151;-72
2023/11/19 12:35:06;;;;;;;;;;;;;;;22.00;20.85;97469.56;4996660;28;1030;-72
2023/11/19 12:37:31;;;;;;;;;;;;;;;22.06;20.97;97473.38;4980158;28;989;-73
2023/11/19 12:39:58;;;;;;;;;;;;;;;21.73;21.42;97473.75;5019700;28;1024;-73
2023/11/19 12:42:36;;;;;;;;;;;;;;;21.94;21.23;97477.06;5036160;28;1906;-73
2023/11/19 12:45:02;;;;;;;;;;;;;;;21.91;20.99;97477.97;5019390;28;941;-73
2023/11/19 12:47:27;;;;;;;;;;;;;;;21.88;21.15;97481.75;5035854;28;978;-73
2023/11/19 12:49:56;;;;;;;;;;;;;;;22.19;21.02;97482.66;5035988;28;1008;-73
2023/11/19 12:52:23;;;;;;;;;;;;;;;22.14;20.88;97485.28;5019377;28;1163;-73
2023/11/19 12:54:49;;;;;;;;;;;;;;;22.20;20.77;97495.56;5036083;28;1151;-73
2023/11/19 12:57:15;;;;;;;;;;;;;;;22.18;20.98;97495.25;5037817;28;948;-73